createdAt,value
2023-04-18T00:00:11.182Z,6.93
2023-04-18T00:01:11.170Z,6.91
2023-04-18T00:02:11.274Z,6.91
2023-04-18T00:03:11.328Z,6.88
2023-04-18T00:04:11.549Z,6.86
2023-04-18T00:05:11.199Z,6.85
2023-04-18T00:06:11.119Z,6.83
2023-04-18T00:07:11.129Z,6.81
2023-04-18T00:08:11.123Z,6.79
2023-04-18T00:09:11.207Z,6.79
2023-04-18T00:10:11.085Z,6.78
2023-04-18T00:11:11.115Z,6.81
2023-04-18T00:12:11.049Z,6.82
2023-04-18T00:13:11.056Z,6.82
2023-04-18T00:14:11.155Z,6.81
2023-04-18T00:15:11.030Z,6.79
2023-04-18T00:16:11.016Z,6.78
2023-04-18T00:17:11.231Z,6.74
2023-04-18T00:18:10.992Z,6.73
2023-04-18T00:19:10.971Z,6.71
2023-04-18T00:20:10.987Z,6.68
2023-04-18T00:21:11.012Z,6.68
2023-04-18T00:22:10.948Z,6.67
2023-04-18T00:23:12.841Z,6.63
2023-04-18T00:24:10.941Z,6.63
2023-04-18T00:25:10.899Z,6.61
2023-04-18T00:26:10.945Z,6.64
2023-04-18T00:27:11.386Z,6.61
2023-04-18T00:28:10.877Z,6.64
2023-04-18T00:29:10.852Z,6.63
2023-04-18T00:30:10.884Z,6.64
2023-04-18T00:31:10.880Z,6.63
2023-04-18T00:32:10.876Z,6.63
2023-04-18T00:33:10.818Z,6.63
2023-04-18T00:34:10.849Z,6.61
2023-04-18T00:35:10.812Z,6.60
2023-04-18T00:36:10.813Z,6.60
2023-04-18T00:37:10.802Z,6.56
2023-04-18T00:38:10.797Z,6.55
2023-04-18T00:39:10.790Z,6.53
2023-04-18T00:40:10.750Z,6.50
2023-04-18T00:41:10.759Z,6.49
2023-04-18T00:42:10.720Z,6.49
2023-04-18T00:43:10.757Z,6.50
2023-04-18T00:44:10.702Z,6.49
2023-04-18T00:45:10.715Z,6.47
2023-04-18T00:46:10.729Z,6.46
2023-04-18T00:47:10.679Z,6.43
2023-04-18T00:48:10.657Z,6.45
2023-04-18T00:49:10.680Z,6.43
2023-04-18T00:50:10.653Z,6.42
2023-04-18T00:51:10.644Z,6.38
2023-04-18T00:52:10.623Z,6.38
2023-04-18T00:53:10.616Z,6.38
2023-04-18T00:54:10.656Z,6.35
2023-04-18T00:55:10.592Z,6.37
2023-04-18T00:56:10.594Z,6.35
2023-04-18T00:57:10.583Z,6.32
2023-04-18T00:58:10.563Z,6.32
2023-04-18T00:59:10.586Z,6.32
2023-04-18T01:00:10.556Z,6.31
2023-04-18T01:01:10.570Z,6.28
2023-04-18T01:02:10.527Z,6.28
2023-04-18T01:03:10.820Z,6.27
2023-04-18T01:04:10.556Z,6.28
2023-04-18T01:05:10.504Z,6.28
2023-04-18T01:06:10.454Z,6.27
2023-04-18T01:07:10.467Z,6.25
2023-04-18T01:08:10.482Z,6.25
2023-04-18T01:09:10.492Z,6.25
2023-04-18T01:10:10.461Z,6.24
2023-04-18T01:11:10.446Z,6.21
2023-04-18T01:12:10.401Z,6.18
2023-04-18T01:13:10.422Z,6.16
2023-04-18T01:14:10.499Z,6.12
2023-04-18T01:15:10.402Z,6.11
2023-04-18T01:16:10.502Z,6.06
2023-04-18T01:17:10.364Z,6.06
2023-04-18T01:18:10.347Z,6.06
2023-04-18T01:19:10.345Z,6.06
2023-04-18T01:20:10.331Z,6.03
2023-04-18T01:21:10.326Z,6.05
2023-04-18T01:22:10.295Z,6.06
2023-04-18T01:23:10.311Z,6.06
2023-04-18T01:24:10.403Z,6.06
2023-04-18T01:25:10.293Z,6.05
2023-04-18T01:26:10.248Z,6.05
2023-04-18T01:27:10.271Z,6.02
2023-04-18T01:28:10.243Z,6.00
2023-04-18T01:29:10.281Z,6.02
2023-04-18T01:30:10.217Z,6.02
2023-04-18T01:31:10.284Z,6.02
2023-04-18T01:32:10.194Z,5.98
2023-04-18T01:33:10.193Z,5.98
2023-04-18T01:34:10.227Z,5.97
2023-04-18T01:35:10.185Z,5.95
2023-04-18T01:36:10.151Z,5.94
2023-04-18T01:37:10.160Z,5.94
2023-04-18T01:38:10.138Z,5.93
2023-04-18T01:39:10.138Z,5.90
2023-04-18T01:40:10.139Z,5.90
2023-04-18T01:41:10.131Z,5.93
2023-04-18T01:42:10.119Z,5.95
2023-04-18T01:43:10.081Z,5.94
2023-04-18T01:44:10.082Z,5.97
2023-04-18T01:45:10.078Z,6.00
2023-04-18T01:46:10.122Z,6.00
2023-04-18T01:47:10.093Z,6.02
2023-04-18T01:48:10.066Z,6.00
2023-04-18T01:49:10.056Z,5.98
2023-04-18T01:50:10.015Z,5.97
2023-04-18T01:51:09.998Z,6.00
2023-04-18T01:52:10.023Z,5.97
2023-04-18T01:53:09.975Z,5.98
2023-04-18T01:54:09.965Z,5.97
2023-04-18T01:55:09.972Z,5.95
2023-04-18T01:56:09.935Z,6.00
2023-04-18T01:57:09.980Z,6.00
2023-04-18T01:58:09.932Z,6.00
2023-04-18T01:59:09.918Z,6.03
2023-04-18T02:00:09.963Z,6.03
2023-04-18T02:01:09.928Z,6.05
2023-04-18T02:02:09.924Z,6.06
2023-04-18T02:03:09.981Z,6.05
2023-04-18T02:04:09.904Z,6.06
2023-04-18T02:05:09.881Z,6.06
2023-04-18T02:06:09.851Z,6.11
2023-04-18T02:07:09.849Z,6.08
2023-04-18T02:08:09.823Z,6.12
2023-04-18T02:09:09.832Z,6.15
2023-04-18T02:10:09.826Z,6.16
2023-04-18T02:11:09.806Z,6.18
2023-04-18T02:12:09.785Z,6.21
2023-04-18T02:13:09.784Z,6.24
2023-04-18T02:14:09.809Z,6.27
2023-04-18T02:15:09.760Z,6.31
2023-04-18T02:16:09.784Z,6.32
2023-04-18T02:17:09.755Z,6.35
2023-04-18T02:18:09.719Z,6.38
2023-04-18T02:19:09.718Z,6.38
2023-04-18T02:20:09.708Z,6.43
2023-04-18T02:21:09.696Z,6.45
2023-04-18T02:22:09.711Z,6.46
2023-04-18T02:23:09.686Z,6.47
2023-04-18T02:24:09.689Z,6.46
2023-04-18T02:25:09.653Z,6.46
2023-04-18T02:26:09.646Z,6.46
2023-04-18T02:27:09.650Z,6.49
2023-04-18T02:28:09.638Z,6.47
2023-04-18T02:29:09.598Z,6.49
2023-04-18T02:30:09.597Z,6.47
2023-04-18T02:31:09.673Z,6.47
2023-04-18T02:32:09.704Z,6.47
2023-04-18T02:33:09.586Z,6.46
2023-04-18T02:34:09.617Z,6.45
2023-04-18T02:35:09.591Z,6.43
2023-04-18T02:36:09.550Z,6.37
2023-04-18T02:37:09.534Z,6.37
2023-04-18T02:38:09.550Z,6.35
2023-04-18T02:39:09.565Z,6.34
2023-04-18T02:40:09.480Z,6.31
2023-04-18T02:41:09.524Z,6.32
2023-04-18T02:42:09.593Z,6.30
2023-04-18T02:43:09.503Z,6.30
2023-04-18T02:44:09.937Z,6.30
2023-04-18T02:45:09.452Z,6.28
2023-04-18T02:46:09.543Z,6.27
2023-04-18T02:47:09.563Z,6.25
2023-04-18T02:48:09.478Z,6.25
2023-04-18T02:49:09.501Z,6.21
2023-04-18T02:50:09.450Z,6.18
2023-04-18T02:51:09.427Z,6.19
2023-04-18T02:52:09.388Z,6.18
2023-04-18T02:53:09.575Z,6.16
2023-04-18T02:54:09.384Z,6.15
2023-04-18T02:55:09.360Z,6.15
2023-04-18T02:56:09.589Z,6.15
2023-04-18T02:57:09.394Z,6.15
2023-04-18T02:58:09.388Z,6.15
2023-04-18T02:59:09.331Z,6.16
2023-04-18T03:00:09.314Z,6.16
2023-04-18T03:01:09.339Z,6.19
2023-04-18T03:02:09.462Z,6.21
2023-04-18T03:03:09.333Z,6.19
2023-04-18T03:04:09.252Z,6.19
2023-04-18T03:05:10.369Z,6.16
2023-04-18T03:06:09.329Z,6.16
2023-04-18T03:07:09.274Z,6.18
2023-04-18T03:08:09.398Z,6.16
2023-04-18T03:09:09.381Z,6.16
2023-04-18T03:10:09.360Z,6.16
2023-04-18T03:11:09.299Z,6.18
2023-04-18T03:12:09.208Z,6.19
2023-04-18T03:13:09.291Z,6.21
2023-04-18T03:14:09.318Z,6.25
2023-04-18T03:15:09.200Z,6.28
2023-04-18T03:16:09.199Z,6.34
2023-04-18T03:17:09.253Z,6.37
2023-04-18T03:18:09.162Z,6.42
2023-04-18T03:19:09.302Z,6.45
2023-04-18T03:20:09.120Z,6.46
2023-04-18T03:21:09.083Z,6.47
2023-04-18T03:22:09.069Z,6.49
2023-04-18T03:23:09.421Z,6.49
2023-04-18T03:24:11.553Z,6.50
2023-04-18T03:25:09.022Z,6.49
2023-04-18T03:26:09.053Z,6.47
2023-04-18T03:27:09.053Z,6.49
2023-04-18T03:28:09.016Z,6.47
2023-04-18T03:29:09.010Z,6.46
2023-04-18T03:30:08.985Z,6.43
2023-04-18T03:31:08.974Z,6.42
2023-04-18T03:32:08.949Z,6.40
2023-04-18T03:33:08.989Z,6.38
2023-04-18T03:34:08.926Z,6.34
2023-04-18T03:35:08.915Z,6.34
2023-04-18T03:36:08.892Z,6.32
2023-04-18T03:37:08.882Z,6.32
2023-04-18T03:38:08.895Z,6.34
2023-04-18T03:39:08.869Z,6.34
2023-04-18T03:40:08.890Z,6.35
2023-04-18T03:41:08.868Z,6.37
2023-04-18T03:42:08.841Z,6.38
2023-04-18T03:43:08.807Z,6.42
2023-04-18T03:44:08.805Z,6.42
2023-04-18T03:45:08.792Z,6.45
2023-04-18T03:46:08.795Z,6.46
2023-04-18T03:47:09.047Z,6.49
2023-04-18T03:48:08.770Z,6.53
2023-04-18T03:49:08.748Z,6.55
2023-04-18T03:50:08.760Z,6.56
2023-04-18T03:51:08.736Z,6.61
2023-04-18T03:52:09.038Z,6.64
2023-04-18T03:53:08.705Z,6.68
2023-04-18T03:54:08.702Z,6.71
2023-04-18T03:55:08.692Z,6.73
2023-04-18T03:56:08.678Z,6.71
2023-04-18T03:57:08.688Z,6.74
2023-04-18T03:58:08.889Z,6.75
2023-04-18T03:59:08.644Z,6.74
2023-04-18T04:00:08.624Z,6.75
2023-04-18T04:01:08.562Z,6.79
2023-04-18T04:02:08.726Z,6.81
2023-04-18T04:03:08.729Z,6.81
2023-04-18T04:04:08.668Z,6.82
2023-04-18T04:05:08.659Z,6.85
2023-04-18T04:06:08.543Z,6.86
2023-04-18T04:07:08.565Z,6.88
2023-04-18T04:08:08.593Z,6.88
2023-04-18T04:09:08.502Z,6.88
2023-04-18T04:10:08.473Z,6.89
2023-04-18T04:11:08.650Z,6.91
2023-04-18T04:12:08.473Z,6.93
2023-04-18T04:13:08.465Z,6.96
2023-04-18T04:14:08.545Z,6.97
2023-04-18T04:15:08.444Z,6.99
2023-04-18T04:16:08.473Z,6.99
2023-04-18T04:17:08.426Z,6.99
2023-04-18T04:18:08.451Z,6.96
2023-04-18T04:19:08.523Z,6.97
2023-04-18T04:20:08.412Z,7.00
2023-04-18T04:21:08.368Z,7.01
2023-04-18T04:22:08.353Z,7.03
2023-04-18T04:23:08.330Z,7.07
2023-04-18T04:24:08.355Z,7.10
2023-04-18T04:25:08.344Z,7.13
2023-04-18T04:26:08.377Z,7.13
2023-04-18T04:27:08.321Z,7.15
2023-04-18T04:28:08.321Z,7.18
2023-04-18T04:29:08.274Z,7.16
2023-04-18T04:30:08.288Z,7.18
2023-04-18T04:31:08.410Z,7.18
2023-04-18T04:32:08.428Z,7.18
2023-04-18T04:33:08.221Z,7.19
2023-04-18T04:34:08.229Z,7.21
2023-04-18T04:35:08.381Z,7.18
2023-04-18T04:36:08.218Z,7.21
2023-04-18T04:37:08.278Z,7.21
2023-04-18T04:38:08.182Z,7.22
2023-04-18T04:39:08.156Z,7.22
2023-04-18T04:40:08.175Z,7.21
2023-04-18T04:41:08.161Z,7.22
2023-04-18T04:42:08.138Z,7.22
2023-04-18T04:43:08.116Z,7.19
2023-04-18T04:44:08.112Z,7.21
2023-04-18T04:45:08.128Z,7.21
2023-04-18T04:46:08.184Z,7.19
2023-04-18T04:47:08.123Z,7.18
2023-04-18T04:48:08.194Z,7.19
2023-04-18T04:49:08.080Z,7.19
2023-04-18T04:50:08.061Z,7.21
2023-04-18T04:51:08.151Z,7.22
2023-04-18T04:52:08.084Z,7.22
2023-04-18T04:53:08.062Z,7.21
2023-04-18T04:54:08.022Z,7.21
2023-04-18T04:55:08.032Z,7.22
2023-04-18T04:56:08.005Z,7.19
2023-04-18T04:57:08.213Z,7.21
2023-04-18T04:58:08.056Z,7.19
2023-04-18T04:59:08.128Z,7.18
2023-04-18T05:00:08.175Z,7.18
2023-04-18T05:01:08.021Z,7.16
2023-04-18T05:02:08.396Z,7.16
2023-04-18T05:03:08.422Z,7.18
2023-04-18T05:04:08.224Z,7.18
2023-04-18T05:05:08.165Z,7.18
2023-04-18T05:06:07.971Z,7.19
2023-04-18T05:07:08.125Z,7.21
2023-04-18T05:08:07.983Z,7.21
2023-04-18T05:09:07.881Z,7.24
2023-04-18T05:10:08.280Z,7.22
2023-04-18T05:11:07.863Z,7.24
2023-04-18T05:12:07.942Z,7.24
2023-04-18T05:13:07.809Z,7.24
2023-04-18T05:14:07.811Z,7.24
2023-04-18T05:15:07.799Z,7.26
2023-04-18T05:16:07.779Z,7.29
2023-04-18T05:17:07.830Z,7.33
2023-04-18T05:18:07.846Z,7.36
2023-04-18T05:19:07.806Z,7.37
2023-04-18T05:20:07.815Z,7.43
2023-04-18T05:21:07.722Z,7.47
2023-04-18T05:22:07.704Z,7.50
2023-04-18T05:23:07.683Z,7.54
2023-04-18T05:24:07.720Z,7.57
2023-04-18T05:25:07.842Z,7.60
2023-04-18T05:26:07.668Z,7.64
2023-04-18T05:27:07.677Z,7.68
2023-04-18T05:28:07.633Z,7.68
2023-04-18T05:29:07.676Z,7.69
2023-04-18T05:30:07.717Z,7.71
2023-04-18T05:31:08.003Z,7.69
2023-04-18T05:32:07.780Z,7.64
2023-04-18T05:33:07.793Z,7.64
2023-04-18T05:34:07.582Z,7.58
2023-04-18T05:35:07.575Z,7.57
2023-04-18T05:36:07.657Z,7.54
2023-04-18T05:37:07.637Z,7.47
2023-04-18T05:38:07.568Z,7.46
2023-04-18T05:39:07.528Z,7.44
2023-04-18T05:40:07.554Z,7.46
2023-04-18T05:41:07.492Z,7.43
2023-04-18T05:42:07.483Z,7.37
2023-04-18T05:43:07.494Z,7.37
2023-04-18T05:44:07.515Z,7.33
2023-04-18T05:45:07.498Z,7.31
2023-04-18T05:46:07.483Z,7.25
2023-04-18T05:47:07.443Z,7.24
2023-04-18T05:48:07.460Z,7.22
2023-04-18T05:49:07.414Z,7.21
2023-04-18T05:50:07.452Z,7.21
2023-04-18T05:51:07.778Z,7.18
2023-04-18T05:52:07.401Z,7.13
2023-04-18T05:53:07.531Z,7.11
2023-04-18T05:54:07.377Z,7.10
2023-04-18T05:55:07.357Z,7.06
2023-04-18T05:56:07.354Z,7.04
2023-04-18T05:57:07.360Z,7.04
2023-04-18T05:58:07.339Z,7.01
2023-04-18T05:59:07.316Z,7.00
2023-04-18T06:00:07.297Z,7.01
2023-04-18T06:01:07.282Z,6.97
2023-04-18T06:02:07.351Z,6.97
2023-04-18T06:03:10.103Z,6.96
2023-04-18T06:04:07.410Z,6.93
2023-04-18T06:05:07.433Z,6.93
2023-04-18T06:06:07.249Z,6.92
2023-04-18T06:07:07.387Z,6.93
2023-04-18T06:08:07.211Z,6.92
2023-04-18T06:09:07.214Z,6.92
2023-04-18T06:10:07.301Z,6.88
2023-04-18T06:11:07.176Z,6.92
2023-04-18T06:12:07.263Z,6.97
2023-04-18T06:13:07.157Z,7.03
2023-04-18T06:14:07.220Z,7.08
2023-04-18T06:15:07.192Z,7.15
2023-04-18T06:16:07.183Z,7.22
2023-04-18T06:17:07.118Z,7.26
2023-04-18T06:18:07.176Z,7.26
2023-04-18T06:19:07.092Z,7.31
2023-04-18T06:20:07.115Z,7.34
2023-04-18T06:21:07.068Z,7.37
2023-04-18T06:22:07.138Z,7.42
2023-04-18T06:23:07.057Z,7.46
2023-04-18T06:24:07.054Z,7.47
2023-04-18T06:25:07.008Z,7.50
2023-04-18T06:26:07.128Z,7.49
2023-04-18T06:28:06.996Z,7.49
2023-04-18T06:29:07.067Z,7.55
2023-04-18T06:30:06.999Z,7.61
2023-04-18T06:31:06.972Z,7.64
2023-04-18T06:32:07.011Z,7.68
2023-04-18T06:33:07.000Z,7.71
2023-04-18T06:34:06.975Z,7.68
2023-04-18T06:35:06.916Z,7.71
2023-04-18T06:36:07.438Z,7.69
2023-04-18T06:37:06.954Z,7.69
2023-04-18T06:38:06.904Z,7.66
2023-04-18T06:39:06.958Z,7.66
2023-04-18T06:40:06.938Z,7.66
2023-04-18T06:41:06.877Z,7.66
2023-04-18T06:42:06.857Z,7.69
2023-04-18T06:43:06.875Z,7.76
2023-04-18T06:44:07.288Z,7.81
2023-04-18T06:45:06.833Z,7.84
2023-04-18T06:46:06.985Z,7.84
2023-04-18T06:47:07.107Z,7.86
2023-04-18T06:48:07.069Z,7.80
2023-04-18T06:49:07.216Z,7.74
2023-04-18T06:50:06.822Z,7.74
2023-04-18T06:51:06.756Z,7.78
2023-04-18T06:52:06.737Z,7.83
2023-04-18T06:53:06.705Z,7.86
2023-04-18T06:54:06.779Z,7.88
2023-04-18T06:55:07.598Z,7.88
2023-04-18T06:56:06.694Z,7.92
2023-04-18T06:57:06.683Z,7.94
2023-04-18T06:58:06.688Z,7.92
2023-04-18T06:59:06.645Z,7.88
2023-04-18T07:00:06.693Z,7.87
2023-04-18T07:01:06.656Z,7.86
2023-04-18T07:02:06.677Z,7.92
2023-04-18T07:03:08.093Z,7.95
2023-04-18T07:04:06.883Z,7.98
2023-04-18T07:05:06.619Z,8.01
2023-04-18T07:06:06.613Z,7.99
2023-04-18T07:07:06.570Z,7.92
2023-04-18T07:08:06.619Z,7.94
2023-04-18T07:09:06.561Z,7.88
2023-04-18T07:10:06.579Z,7.88
2023-04-18T07:11:06.574Z,7.86
2023-04-18T07:12:06.537Z,7.86
2023-04-18T07:13:06.554Z,7.87
2023-04-18T07:14:06.522Z,7.87
2023-04-18T07:15:06.556Z,7.87
2023-04-18T07:16:06.485Z,7.91
2023-04-18T07:17:06.647Z,7.88
2023-04-18T07:18:06.469Z,7.91
2023-04-18T07:19:06.445Z,7.91
2023-04-18T07:20:06.469Z,7.94
2023-04-18T07:21:06.456Z,7.92
2023-04-18T07:22:06.678Z,7.91
2023-04-18T07:23:06.424Z,7.92
2023-04-18T07:24:06.422Z,7.87
2023-04-18T07:25:06.394Z,7.87
2023-04-18T07:26:06.410Z,7.91
2023-04-18T07:27:06.364Z,7.88
2023-04-18T07:28:06.362Z,7.86
2023-04-18T07:29:06.343Z,7.81
2023-04-18T07:30:06.346Z,7.78
2023-04-18T07:31:06.371Z,7.83
2023-04-18T07:32:08.126Z,7.84
2023-04-18T07:33:06.328Z,7.92
2023-04-18T07:34:06.281Z,7.96
2023-04-18T07:35:06.305Z,8.04
2023-04-18T07:36:06.310Z,8.09
2023-04-18T07:37:06.241Z,8.06
2023-04-18T07:38:06.410Z,8.13
2023-04-18T07:39:06.220Z,8.13
2023-04-18T07:40:06.230Z,8.23
2023-04-18T07:41:06.235Z,8.26
2023-04-18T07:42:06.218Z,8.35
2023-04-18T07:43:06.257Z,8.47
2023-04-18T07:44:06.186Z,8.52
2023-04-18T07:45:06.160Z,8.57
2023-04-18T07:46:06.690Z,8.67
2023-04-18T07:47:06.232Z,8.71
2023-04-18T07:48:06.231Z,8.78
2023-04-18T07:49:06.131Z,8.78
2023-04-18T07:50:06.146Z,8.78
2023-04-18T07:51:06.179Z,8.80
2023-04-18T07:52:06.099Z,8.75
2023-04-18T07:53:06.173Z,8.75
2023-04-18T07:54:06.090Z,8.68
2023-04-18T07:55:06.089Z,8.67
2023-04-18T07:56:08.604Z,8.60
2023-04-18T07:57:06.055Z,8.63
2023-04-18T07:58:06.097Z,8.67
2023-04-18T07:59:06.071Z,8.68
2023-04-18T08:00:06.082Z,8.71
2023-04-18T08:01:06.010Z,8.72
2023-04-18T08:02:05.996Z,8.74
2023-04-18T08:03:06.071Z,8.68
2023-04-18T08:04:06.116Z,8.62
2023-04-18T08:05:06.367Z,8.56
2023-04-18T08:06:06.076Z,8.52
2023-04-18T08:07:05.955Z,8.50
2023-04-18T08:08:06.279Z,8.52
2023-04-18T08:09:05.972Z,8.63
2023-04-18T08:10:05.926Z,8.67
2023-04-18T08:11:05.961Z,8.63
2023-04-18T08:12:05.903Z,8.62
2023-04-18T08:13:05.916Z,8.59
2023-04-18T08:14:05.880Z,8.57
2023-04-18T08:15:05.874Z,8.63
2023-04-18T08:16:05.866Z,8.72
2023-04-18T08:17:05.841Z,8.72
2023-04-18T08:18:05.854Z,8.78
2023-04-18T08:19:05.832Z,8.74
2023-04-18T08:20:05.832Z,8.77
2023-04-18T08:21:05.916Z,8.85
2023-04-18T08:22:05.780Z,8.95
2023-04-18T08:23:09.545Z,9.01
2023-04-18T08:24:05.768Z,9.06
2023-04-18T08:25:06.003Z,9.06
2023-04-18T08:26:05.748Z,9.14
2023-04-18T08:27:05.741Z,9.26
2023-04-18T08:28:05.699Z,9.33
2023-04-18T08:29:05.720Z,9.33
2023-04-18T08:30:05.695Z,9.40
2023-04-18T08:31:05.761Z,9.42
2023-04-18T08:32:05.760Z,9.44
2023-04-18T08:33:05.732Z,9.54
2023-04-18T08:34:05.655Z,9.57
2023-04-18T08:35:05.648Z,9.55
2023-04-18T08:36:06.315Z,9.48
2023-04-18T08:37:05.689Z,9.42
2023-04-18T08:38:06.725Z,9.42
2023-04-18T08:39:05.720Z,9.48
2023-04-18T08:40:05.741Z,9.48
2023-04-18T08:41:05.822Z,9.45
2023-04-18T08:42:05.675Z,9.40
2023-04-18T08:43:05.569Z,9.33
2023-04-18T08:44:05.730Z,9.22
2023-04-18T08:45:05.628Z,9.16
2023-04-18T08:46:06.100Z,9.14
2023-04-18T08:47:05.540Z,9.12
2023-04-18T08:48:05.582Z,9.11
2023-04-18T08:49:05.539Z,9.19
2023-04-18T08:50:05.567Z,9.29
2023-04-18T08:51:05.511Z,9.37
2023-04-18T08:52:05.586Z,9.42
2023-04-18T08:53:05.472Z,9.48
2023-04-18T08:54:05.450Z,9.55
2023-04-18T08:55:05.427Z,9.63
2023-04-18T08:56:05.707Z,9.66
2023-04-18T08:57:05.472Z,9.69
2023-04-18T08:58:05.419Z,9.67
2023-04-18T08:59:05.438Z,9.73
2023-04-18T09:00:05.645Z,9.69
2023-04-18T09:01:05.446Z,9.67
2023-04-18T09:02:05.456Z,9.77
2023-04-18T09:03:05.441Z,9.81
2023-04-18T09:04:05.387Z,9.93
2023-04-18T09:05:05.326Z,10.03
2023-04-18T09:06:05.306Z,9.99
2023-04-18T09:07:05.343Z,10.01
2023-04-18T09:08:05.272Z,9.96
2023-04-18T09:09:05.314Z,9.96
2023-04-18T09:10:05.315Z,9.98
2023-04-18T09:11:05.267Z,10.02
2023-04-18T09:12:05.261Z,10.08
2023-04-18T09:13:05.259Z,10.20
2023-04-18T09:14:05.264Z,10.34
2023-04-18T09:15:05.227Z,10.38
2023-04-18T09:16:05.192Z,10.28
2023-04-18T09:17:05.251Z,10.31
2023-04-18T09:18:05.198Z,10.36
2023-04-18T09:19:06.307Z,10.52
2023-04-18T09:20:05.280Z,10.52
2023-04-18T09:21:05.184Z,10.52
2023-04-18T09:22:05.162Z,10.54
2023-04-18T09:23:05.148Z,10.55
2023-04-18T09:24:05.146Z,10.58
2023-04-18T09:25:05.192Z,10.76
2023-04-18T09:26:05.155Z,10.78
2023-04-18T09:27:05.216Z,10.83
2023-04-18T09:28:05.179Z,10.97
2023-04-18T09:29:05.082Z,11.15
2023-04-18T09:30:05.181Z,11.18
2023-04-18T09:31:05.103Z,11.22
2023-04-18T09:32:05.114Z,11.27
2023-04-18T09:33:05.093Z,11.22
2023-04-18T09:34:05.059Z,11.16
2023-04-18T09:35:05.179Z,11.33
2023-04-18T09:36:05.030Z,11.43
2023-04-18T09:37:05.236Z,11.46
2023-04-18T09:38:04.970Z,11.62
2023-04-18T09:39:05.063Z,11.87
2023-04-18T09:40:05.122Z,12.05
2023-04-18T09:41:05.120Z,12.10
2023-04-18T09:42:05.001Z,12.00
2023-04-18T09:43:05.006Z,12.08
2023-04-18T09:44:04.907Z,12.22
2023-04-18T09:45:05.056Z,12.28
2023-04-18T09:46:04.899Z,12.30
2023-04-18T09:47:04.864Z,12.25
2023-04-18T09:48:05.983Z,12.08
2023-04-18T09:49:04.875Z,12.08
2023-04-18T09:50:04.889Z,12.04
2023-04-18T09:51:04.899Z,12.04
2023-04-18T09:52:04.806Z,12.11
2023-04-18T09:53:04.819Z,12.13
2023-04-18T09:54:04.883Z,12.21
2023-04-18T09:55:04.807Z,12.38
2023-04-18T09:56:04.816Z,12.48
2023-04-18T09:57:04.770Z,12.71
2023-04-18T09:58:05.885Z,12.72
2023-04-18T09:59:05.052Z,12.55
2023-04-18T10:00:05.202Z,12.54
2023-04-18T10:01:04.750Z,12.72
2023-04-18T10:02:04.884Z,12.79
2023-04-18T10:03:04.755Z,12.71
2023-04-18T10:04:04.726Z,12.87
2023-04-18T10:05:04.821Z,13.35
2023-04-18T10:06:04.823Z,13.78
2023-04-18T10:07:05.256Z,14.26
2023-04-18T10:08:04.702Z,14.13
2023-04-18T10:09:04.671Z,14.33
2023-04-18T10:10:04.610Z,14.16
2023-04-18T10:11:04.601Z,14.12
2023-04-18T10:12:04.600Z,13.93
2023-04-18T10:13:04.920Z,13.68
2023-04-18T10:14:04.747Z,14.15
2023-04-18T10:15:04.610Z,14.66
2023-04-18T10:16:04.597Z,14.87
2023-04-18T10:17:04.594Z,14.86
2023-04-18T10:18:06.078Z,14.49
2023-04-18T10:19:04.556Z,14.82
2023-04-18T10:20:04.526Z,15.12
2023-04-18T10:21:04.503Z,15.14
2023-04-18T10:22:04.583Z,14.83
2023-04-18T10:23:04.571Z,14.48
2023-04-18T10:24:04.497Z,14.61
2023-04-18T10:25:04.475Z,14.70
2023-04-18T10:26:04.506Z,14.70
2023-04-18T10:27:04.721Z,15.15
2023-04-18T10:28:04.470Z,15.36
2023-04-18T10:29:04.456Z,15.44
2023-04-18T10:30:04.551Z,15.84
2023-04-18T10:31:04.458Z,15.66
2023-04-18T10:32:04.410Z,15.58
2023-04-18T10:33:12.705Z,15.40
2023-04-18T10:34:17.741Z,15.25
2023-04-18T10:35:05.885Z,14.95
2023-04-18T10:36:05.265Z,15.25
2023-04-18T10:37:04.361Z,15.59
2023-04-18T10:38:04.385Z,15.45
2023-04-18T10:39:04.384Z,15.81
2023-04-18T10:40:04.895Z,16.17
2023-04-18T10:41:04.397Z,16.24
2023-04-18T10:42:04.304Z,15.93
2023-04-18T10:43:04.817Z,15.59
2023-04-18T10:44:04.707Z,15.23
2023-04-18T10:45:04.283Z,14.87
2023-04-18T10:46:04.293Z,14.63
2023-04-18T10:47:04.316Z,14.55
2023-04-18T10:48:04.793Z,14.58
2023-04-18T10:49:04.270Z,14.49
2023-04-18T10:50:06.239Z,14.30
2023-04-18T10:51:04.205Z,14.09
2023-04-18T10:52:05.397Z,13.83
2023-04-18T10:53:04.170Z,13.57
2023-04-18T10:54:06.701Z,13.45
2023-04-18T10:55:04.150Z,13.29
2023-04-18T10:56:04.175Z,13.11
2023-04-18T10:57:04.203Z,12.88
2023-04-18T10:58:04.110Z,12.77
2023-04-18T10:59:04.098Z,12.81
2023-04-18T11:00:04.112Z,12.83
2023-04-18T11:01:04.148Z,12.77
2023-04-18T11:02:04.278Z,12.66
2023-04-18T11:03:04.268Z,12.65
2023-04-18T11:04:04.158Z,12.72
2023-04-18T11:05:04.127Z,12.81
2023-04-18T11:06:04.134Z,12.99
2023-04-18T11:07:04.187Z,13.01
2023-04-18T11:08:04.034Z,13.09
2023-04-18T11:09:04.051Z,13.04
2023-04-18T11:10:03.981Z,13.17
2023-04-18T11:11:04.224Z,13.38
2023-04-18T11:12:04.140Z,13.46
2023-04-18T11:13:04.050Z,13.54
2023-04-18T11:14:04.012Z,13.79
2023-04-18T11:15:03.929Z,13.96
2023-04-18T11:16:03.962Z,14.18
2023-04-18T11:17:03.917Z,14.26
2023-04-18T11:18:03.998Z,14.15
2023-04-18T11:19:03.874Z,13.96
2023-04-18T11:20:03.850Z,13.73
2023-04-18T11:21:03.906Z,14.19
2023-04-18T11:22:03.857Z,15.08
2023-04-18T11:23:03.863Z,15.33
2023-04-18T11:24:03.893Z,15.20
2023-04-18T11:25:03.855Z,15.10
2023-04-18T11:26:03.966Z,14.95
2023-04-18T11:27:03.796Z,14.70
2023-04-18T11:28:03.826Z,14.64
2023-04-18T11:29:03.782Z,14.41
2023-04-18T11:30:03.833Z,14.11
2023-04-18T11:31:03.753Z,14.03
2023-04-18T11:32:03.820Z,14.23
2023-04-18T11:33:03.804Z,14.85
2023-04-18T11:34:03.819Z,14.58
2023-04-18T11:35:03.702Z,14.28
2023-04-18T11:36:03.936Z,13.79
2023-04-18T11:37:03.862Z,13.46
2023-04-18T11:38:03.700Z,13.36
2023-04-18T11:39:03.668Z,13.30
2023-04-18T11:40:03.652Z,13.30
2023-04-18T11:41:03.719Z,13.73
2023-04-18T11:42:03.690Z,14.12
2023-04-18T11:43:03.651Z,14.41
2023-04-18T11:44:03.587Z,15.33
2023-04-18T11:45:03.611Z,16.03
2023-04-18T11:46:03.697Z,15.93
2023-04-18T11:47:03.863Z,16.84
2023-04-18T11:48:03.616Z,17.39
2023-04-18T11:49:03.549Z,17.87
2023-04-18T11:50:03.604Z,17.79
2023-04-18T11:51:03.583Z,17.78
2023-04-18T11:52:03.531Z,17.46
2023-04-18T11:53:03.514Z,17.54
2023-04-18T11:54:03.594Z,18.17
2023-04-18T11:55:03.477Z,18.13
2023-04-18T11:56:03.469Z,18.03
2023-04-18T11:57:03.529Z,17.88
2023-04-18T11:58:03.484Z,17.97
2023-04-18T11:59:03.504Z,17.57
2023-04-18T12:00:03.425Z,17.22
2023-04-18T12:01:03.440Z,16.62
2023-04-18T12:02:15.565Z,16.28
2023-04-18T12:03:03.870Z,15.70
2023-04-18T12:04:04.162Z,15.58
2023-04-18T12:05:03.596Z,15.27
2023-04-18T12:06:03.562Z,14.97
2023-04-18T12:07:03.357Z,14.69
2023-04-18T12:08:03.387Z,14.56
2023-04-18T12:09:03.328Z,14.56
2023-04-18T12:10:03.335Z,14.61
2023-04-18T12:11:03.297Z,14.52
2023-04-18T12:12:03.337Z,14.44
2023-04-18T12:13:03.309Z,14.90
2023-04-18T12:14:04.157Z,15.30
2023-04-18T12:15:03.496Z,15.27
2023-04-18T12:16:03.310Z,15.54
2023-04-18T12:17:03.370Z,16.62
2023-04-18T12:18:03.324Z,17.17
2023-04-18T12:19:03.234Z,18.33
2023-04-18T12:20:03.315Z,17.87
2023-04-18T12:21:03.494Z,17.79
2023-04-18T12:22:03.256Z,17.53
2023-04-18T12:23:03.197Z,17.59
2023-04-18T12:24:03.206Z,17.47
2023-04-18T12:25:03.143Z,17.04
2023-04-18T12:26:03.174Z,16.34
2023-04-18T12:27:03.126Z,15.99
2023-04-18T12:28:03.155Z,15.73
2023-04-18T12:29:03.141Z,15.59
2023-04-18T12:30:03.112Z,15.59
2023-04-18T12:31:03.164Z,16.40
2023-04-18T12:32:03.285Z,16.40
2023-04-18T12:33:03.108Z,16.21
2023-04-18T12:34:03.227Z,16.42
2023-04-18T12:35:03.043Z,16.37
2023-04-18T12:36:03.035Z,16.40
2023-04-18T12:37:03.003Z,16.57
2023-04-18T12:38:03.121Z,16.69
2023-04-18T12:39:03.119Z,16.64
2023-04-18T12:40:03.057Z,17.47
2023-04-18T12:41:02.973Z,17.68
2023-04-18T12:42:02.978Z,17.28
2023-04-18T12:43:03.923Z,17.30
2023-04-18T12:44:02.975Z,17.73
2023-04-18T12:45:02.990Z,17.87
2023-04-18T12:46:02.982Z,17.13
2023-04-18T12:47:03.046Z,16.84
2023-04-18T12:48:02.961Z,16.67
2023-04-18T12:49:02.947Z,17.66
2023-04-18T12:50:02.887Z,17.97
2023-04-18T12:51:02.865Z,17.54
2023-04-18T12:52:03.109Z,18.39
2023-04-18T12:53:02.849Z,18.28
2023-04-18T12:54:02.851Z,17.86
2023-04-18T12:55:02.838Z,17.68
2023-04-18T12:56:02.844Z,17.39
2023-04-18T12:57:02.837Z,17.31
2023-04-18T12:58:02.876Z,17.57
2023-04-18T12:59:02.826Z,17.28
2023-04-18T13:00:02.787Z,17.59
2023-04-18T13:01:02.815Z,17.78
2023-04-18T13:02:02.843Z,17.46
2023-04-18T13:03:03.056Z,18.74
2023-04-18T13:04:11.737Z,18.96
2023-04-18T13:05:02.755Z,19.67
2023-04-18T13:06:02.738Z,20.46
2023-04-18T13:07:02.698Z,20.74
2023-04-18T13:09:02.710Z,19.84
2023-04-18T13:10:02.666Z,19.71
2023-04-18T13:11:02.671Z,19.13
2023-04-18T13:12:02.664Z,18.49